Amado Nervo National Airport
MMEP : rendu visible

Aérodrome :











RETROUVEZ-NOUS SUR...

 
LOGIN :

S'inscrire | Disclaimer

   EN    FR    IT 

 









Légende :    VFR   VFR Marginal   IFR   IFR Intensif   IFR Très Intensif
Visi : 
Plafond : 
>= 8 km
>= 3000ft
5 à 8 km
1000 à 3000 ft
1500m à 5 km
500 à 1000 ft
800 à 1500m
200 à 500 ft
< 800m
< 200 ft
Symboles :   Orages  Brouillard  Fortes neiges  Fortes précipitations  Vent > 20 kt






- Altitude de l'aérodrome : 3020 ft
- Code IATA : TPQ


MMEP - Amado Nervo National

DERNIER METAR :
  • 141947Z 16003KT 12SM SKC 30/14 A2996

METARs EXPIRÉS :
  • 141844Z 10005KT 10SM SKC 28/15 A3000
  • 141752Z 12006KT 10SM SKC 22/13 A3003 RMK SLP152 54000 986

TAF TAF MMEP
Valide du 14 à 18h jusqu'au 15 à 18h UTC


141633Z 1418/1518 00000KT P6SM SKC
BECMG 1420/1421 32010KT
FM150200 00000KT P6SM SKC
TEMPO 1510/1514 4SM BR HZ
FM151600 32005KT P6SM SCT020



MET'MAP, la Météo Aéronautique d'un coup d'oeil ! - Copyright ORBIFLY Décembre 2007 - Disclaimer

ORBIFLY MET'MAP TEAM :

Programmation & Développement : Alexandra Zaïnal
Sur une idée originale de : Baudouin d'Aumeries
Assistance à la programmation : Marc-Olivier Méhu
Soutien technique & logistique : Manuel Goepfert

Contact : metmap@orbifly.com




SOURCES & CREDITS :

   NOAA       Earth
Advisory